sensor_id;sensor_type;location;lat;lon;timestamp;pressure;altitude;pressure_sealevel;temperature;humidity
50867;BME280;36839;51.946;21.002;2022-09-28T00:01:20;98327.27;;;10.78;100.00
50867;BME280;36839;51.946;21.002;2022-09-28T00:03:53;98326.20;;;10.76;100.00
50867;BME280;36839;51.946;21.002;2022-09-28T00:06:21;98330.67;;;10.75;100.00
50867;BME280;36839;51.946;21.002;2022-09-28T00:09:07;98322.46;;;10.72;100.00
50867;BME280;36839;51.946;21.002;2022-09-28T00:12:10;98329.73;;;10.68;100.00
50867;BME280;36839;51.946;21.002;2022-09-28T00:14:38;98327.38;;;10.64;100.00
50867;BME280;36839;51.946;21.002;2022-09-28T00:17:09;98326.92;;;10.59;100.00
50867;BME280;36839;51.946;21.002;2022-09-28T00:19:38;98323.92;;;10.58;100.00
50867;BME280;36839;51.946;21.002;2022-09-28T00:22:07;98314.98;;;10.53;100.00
50867;BME280;36839;51.946;21.002;2022-09-28T00:24:38;98314.98;;;10.53;100.00
50867;BME280;36839;51.946;21.002;2022-09-28T00:27:06;98310.63;;;10.49;100.00
50867;BME280;36839;51.946;21.002;2022-09-28T00:29:40;98305.19;;;10.47;100.00
50867;BME280;36839;51.946;21.002;2022-09-28T00:32:11;98307.70;;;10.46;100.00
50867;BME280;36839;51.946;21.002;2022-09-28T00:34:42;98303.07;;;10.44;100.00
50867;BME280;36839;51.946;21.002;2022-09-28T00:37:12;98306.69;;;10.42;100.00
50867;BME280;36839;51.946;21.002;2022-09-28T00:39:39;98307.09;;;10.38;100.00
50867;BME280;36839;51.946;21.002;2022-09-28T00:42:16;98304.08;;;10.37;100.00
50867;BME280;36839;51.946;21.002;2022-09-28T00:44:53;98303.59;;;10.35;100.00
50867;BME280;36839;51.946;21.002;2022-09-28T00:50:16;98304.40;;;10.35;100.00
50867;BME280;36839;51.946;21.002;2022-09-28T00:52:51;98305.53;;;10.34;100.00
50867;BME280;36839;51.946;21.002;2022-09-28T00:55:21;98305.53;;;10.34;100.00
50867;BME280;36839;51.946;21.002;2022-09-28T00:57:51;98295.67;;;10.30;100.00
50867;BME280;36839;51.946;21.002;2022-09-28T01:00:20;98287.35;;;10.33;100.00
50867;BME280;36839;51.946;21.002;2022-09-28T01:02:49;98291.48;;;10.33;100.00
50867;BME280;36839;51.946;21.002;2022-09-28T01:05:20;98290.92;;;10.34;100.00
50867;BME280;36839;51.946;21.002;2022-09-28T01:07:46;98289.02;;;10.32;100.00
50867;BME280;36839;51.946;21.002;2022-09-28T01:10:16;98289.02;;;10.32;100.00
50867;BME280;36839;51.946;21.002;2022-09-28T01:12:46;98282.94;;;10.32;100.00
50867;BME280;36839;51.946;21.002;2022-09-28T01:15:13;98283.50;;;10.32;100.00
50867;BME280;36839;51.946;21.002;2022-09-28T01:20:26;98285.77;;;10.29;100.00
50867;BME280;36839;51.946;21.002;2022-09-28T01:25:40;98279.44;;;10.29;100.00
50867;BME280;36839;51.946;21.002;2022-09-28T01:28:13;98278.87;;;10.29;100.00
50867;BME280;36839;51.946;21.002;2022-09-28T01:31:04;98279.83;;;10.25;100.00
50867;BME280;36839;51.946;21.002;2022-09-28T01:33:35;98279.76;;;10.27;100.00
50867;BME280;36839;51.946;21.002;2022-09-28T01:36:05;98283.58;;;10.29;100.00
50867;BME280;36839;51.946;21.002;2022-09-28T01:38:40;98283.58;;;10.29;100.00
50867;BME280;36839;51.946;21.002;2022-09-28T01:41:08;98282.69;;;10.31;100.00
50867;BME280;36839;51.946;21.002;2022-09-28T01:43:39;98291.68;;;10.25;100.00
50867;BME280;36839;51.946;21.002;2022-09-28T01:46:21;98297.00;;;10.22;100.00
50867;BME280;36839;51.946;21.002;2022-09-28T01:49:01;98299.55;;;10.18;100.00
50867;BME280;36839;51.946;21.002;2022-09-28T01:51:28;98298.00;;;10.15;100.00
50867;BME280;36839;51.946;21.002;2022-09-28T01:53:56;98298.00;;;10.15;100.00
50867;BME280;36839;51.946;21.002;2022-09-28T01:56:33;98294.67;;;10.15;100.00
50867;BME280;36839;51.946;21.002;2022-09-28T01:58:59;98290.22;;;10.17;100.00
50867;BME280;36839;51.946;21.002;2022-09-28T02:01:30;98290.22;;;10.17;100.00
50867;BME280;36839;51.946;21.002;2022-09-28T02:04:02;98285.51;;;10.17;100.00
50867;BME280;36839;51.946;21.002;2022-09-28T02:06:34;98290.70;;;10.19;100.00
50867;BME280;36839;51.946;21.002;2022-09-28T02:09:19;98284.63;;;10.19;100.00
50867;BME280;36839;51.946;21.002;2022-09-28T02:11:44;98276.42;;;10.17;100.00
50867;BME280;36839;51.946;21.002;2022-09-28T02:14:13;98275.61;;;10.16;100.00
50867;BME280;36839;51.946;21.002;2022-09-28T02:16:43;98278.69;;;10.15;100.00
50867;BME280;36839;51.946;21.002;2022-09-28T02:19:17;98278.69;;;10.15;100.00
50867;BME280;36839;51.946;21.002;2022-09-28T02:24:54;98283.68;;;10.13;100.00
50867;BME280;36839;51.946;21.002;2022-09-28T02:29:56;98280.75;;;10.09;100.00
50867;BME280;36839;51.946;21.002;2022-09-28T02:32:23;98290.65;;;10.10;100.00
50867;BME280;36839;51.946;21.002;2022-09-28T02:34:53;98290.65;;;10.10;100.00
50867;BME280;36839;51.946;21.002;2022-09-28T02:37:24;98288.95;;;10.12;100.00
50867;BME280;36839;51.946;21.002;2022-09-28T02:39:50;98296.86;;;10.16;100.00
50867;BME280;36839;51.946;21.002;2022-09-28T02:42:22;98296.86;;;10.16;100.00
50867;BME280;36839;51.946;21.002;2022-09-28T02:45:12;98292.66;;;10.18;100.00
50867;BME280;36839;51.946;21.002;2022-09-28T02:59:11;98286.09;;;10.28;100.00
50867;BME280;36839;51.946;21.002;2022-09-28T03:04:25;98282.03;;;10.25;100.00
50867;BME280;36839;51.946;21.002;2022-09-28T03:06:54;98282.03;;;10.25;100.00
50867;BME280;36839;51.946;21.002;2022-09-28T03:09:36;98281.78;;;10.24;100.00
50867;BME280;36839;51.946;21.002;2022-09-28T03:12:05;98283.66;;;10.26;100.00
50867;BME280;36839;51.946;21.002;2022-09-28T03:14:31;98283.33;;;10.28;100.00
50867;BME280;36839;51.946;21.002;2022-09-28T03:16:57;98283.33;;;10.28;100.00
50867;BME280;36839;51.946;21.002;2022-09-28T03:19:33;98284.07;;;10.31;100.00
50867;BME280;36839;51.946;21.002;2022-09-28T03:22:00;98286.78;;;10.34;100.00
50867;BME280;36839;51.946;21.002;2022-09-28T03:24:26;98285.97;;;10.33;100.00
50867;BME280;36839;51.946;21.002;2022-09-28T03:26:53;98287.03;;;10.35;100.00
50867;BME280;36839;51.946;21.002;2022-09-28T03:29:21;98285.89;;;10.36;100.00
50867;BME280;36839;51.946;21.002;2022-09-28T03:31:50;98288.41;;;10.35;100.00
50867;BME280;36839;51.946;21.002;2022-09-28T03:34:18;98289.22;;;10.35;100.00
50867;BME280;36839;51.946;21.002;2022-09-28T03:36:44;98288.98;;;10.34;100.00
50867;BME280;36839;51.946;21.002;2022-09-28T03:39:12;98289.27;;;10.33;100.00
50867;BME280;36839;51.946;21.002;2022-09-28T03:41:40;98291.78;;;10.32;100.00
50867;BME280;36839;51.946;21.002;2022-09-28T03:44:06;98284.07;;;10.31;100.00
50867;BME280;36839;51.946;21.002;2022-09-28T03:46:36;98289.02;;;10.32;100.00
50867;BME280;36839;51.946;21.002;2022-09-28T03:49:02;98289.02;;;10.32;100.00
50867;BME280;36839;51.946;21.002;2022-09-28T03:51:29;98293.41;;;10.33;100.00
50867;BME280;36839;51.946;21.002;2022-09-28T03:53:57;98291.27;;;10.18;100.00
50867;BME280;36839;51.946;21.002;2022-09-28T03:56:25;98290.89;;;10.11;100.00
50867;BME280;36839;51.946;21.002;2022-09-28T03:58:53;98292.42;;;10.06;100.00
50867;BME280;36839;51.946;21.002;2022-09-28T04:01:21;98296.10;;;10.01;100.00
50867;BME280;36839;51.946;21.002;2022-09-28T04:03:52;98302.25;;;9.98;100.00
50867;BME280;36839;51.946;21.002;2022-09-28T04:06:25;98304.88;;;9.92;100.00
50867;BME280;36839;51.946;21.002;2022-09-28T04:08:53;98309.16;;;9.87;100.00
50867;BME280;36839;51.946;21.002;2022-09-28T04:11:21;98308.58;;;9.88;100.00
50867;BME280;36839;51.946;21.002;2022-09-28T04:13:50;98305.37;;;9.83;100.00
50867;BME280;36839;51.946;21.002;2022-09-28T04:16:17;98307.95;;;9.80;100.00
50867;BME280;36839;51.946;21.002;2022-09-28T04:18:44;98304.13;;;9.78;100.00
50867;BME280;36839;51.946;21.002;2022-09-28T04:21:16;98299.22;;;9.75;100.00
50867;BME280;36839;51.946;21.002;2022-09-28T04:23:43;98299.22;;;9.75;100.00
50867;BME280;36839;51.946;21.002;2022-09-28T04:26:21;98297.34;;;9.73;100.00
50867;BME280;36839;51.946;21.002;2022-09-28T04:28:45;98295.47;;;9.71;100.00
50867;BME280;36839;51.946;21.002;2022-09-28T04:32:04;98304.41;;;9.65;100.00
50867;BME280;36839;51.946;21.002;2022-09-28T04:34:09;98302.53;;;9.63;100.00
50867;BME280;36839;51.946;21.002;2022-09-28T04:36:37;98302.53;;;9.63;100.00
50867;BME280;36839;51.946;21.002;2022-09-28T04:39:03;98296.27;;;9.60;100.00
50867;BME280;36839;51.946;21.002;2022-09-28T04:41:35;98299.34;;;9.59;100.00
50867;BME280;36839;51.946;21.002;2022-09-28T04:44:04;98305.17;;;9.57;100.00
50867;BME280;36839;51.946;21.002;2022-09-28T04:46:36;98305.17;;;9.57;100.00
50867;BME280;36839;51.946;21.002;2022-09-28T04:49:04;98303.27;;;9.55;100.00
50867;BME280;36839;51.946;21.002;2022-09-28T04:51:33;98303.27;;;9.55;100.00
50867;BME280;36839;51.946;21.002;2022-09-28T04:54:02;98309.30;;;9.57;100.00
50867;BME280;36839;51.946;21.002;2022-09-28T04:56:29;98300.76;;;9.56;100.00
50867;BME280;36839;51.946;21.002;2022-09-28T04:58:56;98300.76;;;9.56;100.00
50867;BME280;36839;51.946;21.002;2022-09-28T05:01:24;98300.51;;;9.55;100.00
50867;BME280;36839;51.946;21.002;2022-09-28T05:03:52;98300.19;;;9.57;100.00
50867;BME280;36839;51.946;21.002;2022-09-28T05:06:19;98306.33;;;9.54;100.00
50867;BME280;36839;51.946;21.002;2022-09-28T05:08:47;98304.70;;;9.53;100.00
50867;BME280;36839;51.946;21.002;2022-09-28T05:11:15;98300.64;;;9.50;100.00
50867;BME280;36839;51.946;21.002;2022-09-28T05:13:44;98298.45;;;9.50;100.00
50867;BME280;36839;51.946;21.002;2022-09-28T05:16:13;98298.45;;;9.50;100.00
50867;BME280;36839;51.946;21.002;2022-09-28T05:18:45;98301.55;;;9.45;100.00
50867;BME280;36839;51.946;21.002;2022-09-28T05:21:15;98301.55;;;9.45;100.00
50867;BME280;36839;51.946;21.002;2022-09-28T05:23:46;98299.67;;;9.43;100.00
50867;BME280;36839;51.946;21.002;2022-09-28T05:26:14;98299.36;;;9.45;100.00
50867;BME280;36839;51.946;21.002;2022-09-28T05:28:44;98301.87;;;9.44;100.00
50867;BME280;36839;51.946;21.002;2022-09-28T05:31:10;98305.09;;;9.49;100.00
50867;BME280;36839;51.946;21.002;2022-09-28T05:33:39;98305.09;;;9.49;100.00
50867;BME280;36839;51.946;21.002;2022-09-28T05:36:09;98311.66;;;9.50;100.00
50867;BME280;36839;51.946;21.002;2022-09-28T05:38:40;98320.99;;;9.52;100.00
50867;BME280;36839;51.946;21.002;2022-09-28T05:41:06;98321.78;;;9.41;100.00
50867;BME280;36839;51.946;21.002;2022-09-28T05:43:32;98324.79;;;9.42;100.00
50867;BME280;36839;51.946;21.002;2022-09-28T05:46:02;98324.79;;;9.42;100.00
50867;BME280;36839;51.946;21.002;2022-09-28T05:48:31;98331.05;;;9.45;100.00
50867;BME280;36839;51.946;21.002;2022-09-28T05:51:02;98337.28;;;9.51;100.00
50867;BME280;36839;51.946;21.002;2022-09-28T05:53:32;98334.52;;;9.51;100.00
50867;BME280;36839;51.946;21.002;2022-09-28T05:56:00;98334.52;;;9.51;100.00
50867;BME280;36839;51.946;21.002;2022-09-28T05:58:28;98341.53;;;9.57;100.00
50867;BME280;36839;51.946;21.002;2022-09-28T06:00:55;98343.06;;;9.63;100.00
50867;BME280;36839;51.946;21.002;2022-09-28T06:03:24;98351.58;;;9.64;100.00
50867;BME280;36839;51.946;21.002;2022-09-28T06:05:51;98357.88;;;9.67;100.00
50867;BME280;36839;51.946;21.002;2022-09-28T06:08:18;98354.92;;;9.74;100.00
50867;BME280;36839;51.946;21.002;2022-09-28T06:10:44;98352.13;;;9.77;100.00
50867;BME280;36839;51.946;21.002;2022-09-28T06:13:10;98350.78;;;9.74;100.00
50867;BME280;36839;51.946;21.002;2022-09-28T06:15:40;98351.88;;;9.76;100.00
50867;BME280;36839;51.946;21.002;2022-09-28T06:18:10;98358.77;;;9.76;100.00
50867;BME280;36839;51.946;21.002;2022-09-28T06:20:39;98358.77;;;9.76;100.00
50867;BME280;36839;51.946;21.002;2022-09-28T06:23:11;98360.66;;;9.89;100.00
50867;BME280;36839;51.946;21.002;2022-09-28T06:25:40;98358.61;;;9.95;100.00
50867;BME280;36839;51.946;21.002;2022-09-28T06:28:10;98358.61;;;9.95;100.00
50867;BME280;36839;51.946;21.002;2022-09-28T06:30:40;98361.16;;;10.02;100.00
50867;BME280;36839;51.946;21.002;2022-09-28T06:33:13;98363.61;;;10.04;100.00
50867;BME280;36839;51.946;21.002;2022-09-28T06:35:49;98363.61;;;10.04;100.00
50867;BME280;36839;51.946;21.002;2022-09-28T06:38:22;98361.41;;;10.03;100.00
50867;BME280;36839;51.946;21.002;2022-09-28T06:40:50;98361.41;;;10.03;100.00
50867;BME280;36839;51.946;21.002;2022-09-28T06:43:16;98361.22;;;9.89;100.00
50867;BME280;36839;51.946;21.002;2022-09-28T06:45:49;98362.53;;;9.91;100.00
50867;BME280;36839;51.946;21.002;2022-09-28T06:48:16;98361.80;;;9.99;100.00
50867;BME280;36839;51.946;21.002;2022-09-28T06:50:48;98372.09;;;10.08;100.00
50867;BME280;36839;51.946;21.002;2022-09-28T06:53:16;98369.83;;;10.10;100.00
50867;BME280;36839;51.946;21.002;2022-09-28T06:55:45;98373.33;;;10.13;100.00
50867;BME280;36839;51.946;21.002;2022-09-28T06:58:20;98381.50;;;10.18;100.00
50867;BME280;36839;51.946;21.002;2022-09-28T07:00:50;98381.50;;;10.18;100.00
50867;BME280;36839;51.946;21.002;2022-09-28T07:03:20;98370.72;;;10.19;100.00
50867;BME280;36839;51.946;21.002;2022-09-28T07:05:50;98375.27;;;10.37;100.00
50867;BME280;36839;51.946;21.002;2022-09-28T07:08:23;98369.98;;;10.49;100.00
50867;BME280;36839;51.946;21.002;2022-09-28T07:10:54;98372.73;;;10.72;100.00
50867;BME280;36839;51.946;21.002;2022-09-28T07:13:25;98372.73;;;10.72;100.00
50867;BME280;36839;51.946;21.002;2022-09-28T07:15:57;98370.55;;;10.91;100.00
50867;BME280;36839;51.946;21.002;2022-09-28T07:18:28;98370.55;;;10.91;100.00
50867;BME280;36839;51.946;21.002;2022-09-28T07:20:58;98379.86;;;11.04;100.00
50867;BME280;36839;51.946;21.002;2022-09-28T07:23:26;98374.83;;;11.06;100.00
50867;BME280;36839;51.946;21.002;2022-09-28T07:25:55;98378.48;;;11.04;100.00
50867;BME280;36839;51.946;21.002;2022-09-28T07:28:23;98382.51;;;10.98;100.00
50867;BME280;36839;51.946;21.002;2022-09-28T07:30:50;98382.51;;;10.98;100.00
50867;BME280;36839;51.946;21.002;2022-09-28T07:33:20;98381.49;;;11.05;100.00
50867;BME280;36839;51.946;21.002;2022-09-28T07:35:51;98385.75;;;11.11;100.00
50867;BME280;36839;51.946;21.002;2022-09-28T07:38:21;98391.52;;;11.12;100.00
50867;BME280;36839;51.946;21.002;2022-09-28T07:40:47;98382.46;;;11.20;100.00
50867;BME280;36839;51.946;21.002;2022-09-28T07:43:34;98392.09;;;11.31;100.00
50867;BME280;36839;51.946;21.002;2022-09-28T07:46:00;98400.55;;;11.35;100.00
50867;BME280;36839;51.946;21.002;2022-09-28T07:48:26;98395.91;;;11.33;100.00
50867;BME280;36839;51.946;21.002;2022-09-28T07:50:58;98395.91;;;11.33;100.00
50867;BME280;36839;51.946;21.002;2022-09-28T07:53:24;98401.19;;;11.32;100.00
50867;BME280;36839;51.946;21.002;2022-09-28T07:56:01;98402.41;;;11.37;100.00
50867;BME280;36839;51.946;21.002;2022-09-28T07:58:31;98406.55;;;11.48;100.00
50867;BME280;36839;51.946;21.002;2022-09-28T08:01:02;98402.58;;;11.60;100.00
50867;BME280;36839;51.946;21.002;2022-09-28T08:03:30;98402.58;;;11.60;100.00
50867;BME280;36839;51.946;21.002;2022-09-28T08:06:02;98400.24;;;11.73;100.00
50867;BME280;36839;51.946;21.002;2022-09-28T08:08:32;98400.24;;;11.73;100.00
50867;BME280;36839;51.946;21.002;2022-09-28T08:10:59;98410.45;;;11.84;100.00
50867;BME280;36839;51.946;21.002;2022-09-28T08:13:28;98410.45;;;11.84;100.00
50867;BME280;36839;51.946;21.002;2022-09-28T08:15:54;98414.80;;;11.88;100.00
50867;BME280;36839;51.946;21.002;2022-09-28T08:18:26;98414.71;;;11.90;100.00
50867;BME280;36839;51.946;21.002;2022-09-28T08:20:52;98410.33;;;11.98;100.00
50867;BME280;36839;51.946;21.002;2022-09-28T08:23:39;98410.33;;;11.98;100.00
50867;BME280;36839;51.946;21.002;2022-09-28T08:26:05;98406.58;;;12.03;100.00
50867;BME280;36839;51.946;21.002;2022-09-28T08:28:33;98408.97;;;12.15;100.00
50867;BME280;36839;51.946;21.002;2022-09-28T08:31:03;98408.97;;;12.15;100.00
50867;BME280;36839;51.946;21.002;2022-09-28T08:33:34;98410.59;;;12.16;100.00
50867;BME280;36839;51.946;21.002;2022-09-28T08:36:01;98412.64;;;12.13;98.49
50867;BME280;36839;51.946;21.002;2022-09-28T08:38:31;98422.16;;;12.27;100.00
50867;BME280;36839;51.946;21.002;2022-09-28T08:41:21;98417.28;;;12.33;100.00
50867;BME280;36839;51.946;21.002;2022-09-28T08:46:32;98423.20;;;12.37;100.00
50867;BME280;36839;51.946;21.002;2022-09-28T08:49:00;98416.63;;;12.36;99.23
50867;BME280;36839;51.946;21.002;2022-09-28T08:51:48;98410.36;;;12.41;99.56
50867;BME280;36839;51.946;21.002;2022-09-28T08:57:17;98404.79;;;12.50;95.69
50867;BME280;36839;51.946;21.002;2022-09-28T08:59:54;98404.55;;;12.49;96.70
50867;BME280;36839;51.946;21.002;2022-09-28T09:02:27;98404.64;;;12.38;94.08
50867;BME280;36839;51.946;21.002;2022-09-28T09:04:58;98409.94;;;12.37;95.30
50867;BME280;36839;51.946;21.002;2022-09-28T09:10:32;98423.20;;;12.46;94.87
50867;BME280;36839;51.946;21.002;2022-09-28T09:24:22;98420.90;;;12.74;90.66
50867;BME280;36839;51.946;21.002;2022-09-28T09:26:48;98419.03;;;12.72;91.27
50867;BME280;36839;51.946;21.002;2022-09-28T09:32:21;98420.08;;;12.82;92.28
50867;BME280;36839;51.946;21.002;2022-09-28T09:42:55;98422.94;;;13.20;87.99
50867;BME280;36839;51.946;21.002;2022-09-28T09:45:44;98428.14;;;13.22;88.93
50867;BME280;36839;51.946;21.002;2022-09-28T09:48:24;98426.89;;;12.93;87.37
50867;BME280;36839;51.946;21.002;2022-09-28T09:50:54;98438.23;;;12.77;87.22
50867;BME280;36839;51.946;21.002;2022-09-28T09:53:31;98438.23;;;12.77;87.22
50867;BME280;36839;51.946;21.002;2022-09-28T09:56:04;98432.08;;;12.71;88.53
50867;BME280;36839;51.946;21.002;2022-09-28T09:58:42;98432.08;;;12.71;88.53
50867;BME280;36839;51.946;21.002;2022-09-28T10:01:14;98433.66;;;12.98;86.07
50867;BME280;36839;51.946;21.002;2022-09-28T10:03:45;98433.96;;;12.97;84.07
50867;BME280;36839;51.946;21.002;2022-09-28T10:06:26;98441.89;;;12.92;85.18
50867;BME280;36839;51.946;21.002;2022-09-28T10:09:25;98436.46;;;12.81;85.12
50867;BME280;36839;51.946;21.002;2022-09-28T10:11:53;98434.73;;;12.91;86.77
50867;BME280;36839;51.946;21.002;2022-09-28T10:14:24;98437.50;;;13.14;91.50
50867;BME280;36839;51.946;21.002;2022-09-28T10:16:54;98447.69;;;13.25;86.35
50867;BME280;36839;51.946;21.002;2022-09-28T10:19:32;98440.13;;;13.43;87.07
50867;BME280;36839;51.946;21.002;2022-09-28T10:22:02;98447.09;;;13.58;85.80
50867;BME280;36839;51.946;21.002;2022-09-28T10:24:37;98444.31;;;13.72;83.85
50867;BME280;36839;51.946;21.002;2022-09-28T10:27:10;98444.85;;;13.95;83.25
50867;BME280;36839;51.946;21.002;2022-09-28T10:32:26;98441.86;;;14.15;78.30
50867;BME280;36839;51.946;21.002;2022-09-28T10:35:10;98438.34;;;14.27;76.41
50867;BME280;36839;51.946;21.002;2022-09-28T10:37:25;98440.77;;;14.28;77.78
50867;BME280;36839;51.946;21.002;2022-09-28T10:39:56;98440.77;;;14.28;77.78
50867;BME280;36839;51.946;21.002;2022-09-28T10:42:25;98445.03;;;14.41;79.96
50867;BME280;36839;51.946;21.002;2022-09-28T10:44:55;98437.51;;;14.41;75.72
50867;BME280;36839;51.946;21.002;2022-09-28T10:47:27;98441.30;;;14.57;77.34
50867;BME280;36839;51.946;21.002;2022-09-28T10:49:56;98442.92;;;14.58;75.43
50867;BME280;36839;51.946;21.002;2022-09-28T10:52:31;98438.98;;;14.39;73.37
50867;BME280;36839;51.946;21.002;2022-09-28T10:54:59;98445.92;;;14.18;75.05
50867;BME280;36839;51.946;21.002;2022-09-28T10:57:33;98445.92;;;14.18;75.05
50867;BME280;36839;51.946;21.002;2022-09-28T10:59:57;98441.81;;;14.09;77.03
50867;BME280;36839;51.946;21.002;2022-09-28T11:02:40;98439.27;;;14.10;77.68
50867;BME280;36839;51.946;21.002;2022-09-28T11:05:17;98434.98;;;14.07;75.45
50867;BME280;36839;51.946;21.002;2022-09-28T11:07:46;98433.77;;;14.16;73.54
50867;BME280;36839;51.946;21.002;2022-09-28T11:10:22;98433.77;;;14.16;73.54
50867;BME280;36839;51.946;21.002;2022-09-28T11:12:55;98432.77;;;14.42;77.28
50867;BME280;36839;51.946;21.002;2022-09-28T11:15:32;98428.95;;;14.61;74.52
50867;BME280;36839;51.946;21.002;2022-09-28T11:18:19;98435.98;;;14.85;72.44
50867;BME280;36839;51.946;21.002;2022-09-28T11:20:48;98430.80;;;14.96;73.15
50867;BME280;36839;51.946;21.002;2022-09-28T11:23:18;98438.33;;;14.90;72.62
50867;BME280;36839;51.946;21.002;2022-09-28T11:26:03;98438.64;;;14.82;72.66
50867;BME280;36839;51.946;21.002;2022-09-28T11:28:31;98437.33;;;14.73;74.58
50867;BME280;36839;51.946;21.002;2022-09-28T11:31:01;98437.33;;;14.73;74.58
50867;BME280;36839;51.946;21.002;2022-09-28T11:33:39;98438.86;;;14.50;75.72
50867;BME280;36839;51.946;21.002;2022-09-28T11:44:30;98451.84;;;14.58;78.78
50867;BME280;36839;51.946;21.002;2022-09-28T11:52:52;98445.38;;;15.26;77.16
50867;BME280;36839;51.946;21.002;2022-09-28T11:55:23;98447.38;;;15.50;73.89
50867;BME280;36839;51.946;21.002;2022-09-28T11:58:04;98450.41;;;15.57;75.22
50867;BME280;36839;51.946;21.002;2022-09-28T12:00:22;98451.44;;;15.59;73.45
50867;BME280;36839;51.946;21.002;2022-09-28T12:05:27;98453.46;;;15.64;73.01
50867;BME280;36839;51.946;21.002;2022-09-28T12:08:03;98455.14;;;15.51;71.43
50867;BME280;36839;51.946;21.002;2022-09-28T12:10:33;98453.06;;;15.48;72.12
50867;BME280;36839;51.946;21.002;2022-09-28T12:13:11;98455.48;;;15.49;69.99
50867;BME280;36839;51.946;21.002;2022-09-28T12:15:47;98455.48;;;15.49;69.99
50867;BME280;36839;51.946;21.002;2022-09-28T12:18:24;98449.98;;;15.74;68.95
50867;BME280;36839;51.946;21.002;2022-09-28T12:23:47;98452.30;;;15.84;70.24
50867;BME280;36839;51.946;21.002;2022-09-28T12:29:09;98463.75;;;14.52;72.12
50867;BME280;36839;51.946;21.002;2022-09-28T12:32:37;98454.64;;;14.43;73.59
50867;BME280;36839;51.946;21.002;2022-09-28T12:34:14;98452.67;;;14.44;75.04
50867;BME280;36839;51.946;21.002;2022-09-28T12:42:41;98445.25;;;15.17;73.40
50867;BME280;36839;51.946;21.002;2022-09-28T12:51:37;98443.45;;;15.00;73.48
50867;BME280;36839;51.946;21.002;2022-09-28T12:54:19;98437.94;;;15.24;74.81
50867;BME280;36839;51.946;21.002;2022-09-28T12:59:51;98442.28;;;15.46;70.63
50867;BME280;36839;51.946;21.002;2022-09-28T13:08:06;98433.69;;;15.39;67.82
50867;BME280;36839;51.946;21.002;2022-09-28T13:10:44;98419.56;;;15.56;68.76
50867;BME280;36839;51.946;21.002;2022-09-28T13:21:39;98426.30;;;15.98;68.90
50867;BME280;36839;51.946;21.002;2022-09-28T13:24:09;98417.81;;;16.00;68.17
50867;BME280;36839;51.946;21.002;2022-09-28T13:26:40;98417.81;;;16.00;68.17
50867;BME280;36839;51.946;21.002;2022-09-28T13:29:16;98422.48;;;16.03;67.03
50867;BME280;36839;51.946;21.002;2022-09-28T13:31:57;98420.50;;;15.91;68.10
50867;BME280;36839;51.946;21.002;2022-09-28T13:34:26;98422.82;;;15.89;67.78
50867;BME280;36839;51.946;21.002;2022-09-28T13:39:46;98414.47;;;15.89;68.58
50867;BME280;36839;51.946;21.002;2022-09-28T13:45:35;98418.88;;;15.96;70.20
50867;BME280;36839;51.946;21.002;2022-09-28T13:58:47;98410.33;;;16.35;72.61
50867;BME280;36839;51.946;21.002;2022-09-28T14:01:26;98410.72;;;16.55;71.74
50867;BME280;36839;51.946;21.002;2022-09-28T14:04:14;98409.42;;;16.71;67.85
50867;BME280;36839;51.946;21.002;2022-09-28T14:06:47;98407.66;;;16.67;69.04
50867;BME280;36839;51.946;21.002;2022-09-28T14:09:24;98407.66;;;16.67;69.04
50867;BME280;36839;51.946;21.002;2022-09-28T14:11:56;98414.41;;;16.32;70.52
50867;BME280;36839;51.946;21.002;2022-09-28T14:14:49;98410.86;;;16.13;73.60
50867;BME280;36839;51.946;21.002;2022-09-28T14:20:12;98418.55;;;15.85;73.17
50867;BME280;36839;51.946;21.002;2022-09-28T14:25:39;98414.81;;;15.57;75.14
50867;BME280;36839;51.946;21.002;2022-09-28T14:30:56;98412.59;;;15.26;77.18
50867;BME280;36839;51.946;21.002;2022-09-28T14:33:29;98412.59;;;15.26;77.18
50867;BME280;36839;51.946;21.002;2022-09-28T14:36:05;98410.44;;;15.04;79.34
50867;BME280;36839;51.946;21.002;2022-09-28T14:38:46;98412.41;;;14.98;79.15
50867;BME280;36839;51.946;21.002;2022-09-28T14:41:38;98405.87;;;14.81;78.42
50867;BME280;36839;51.946;21.002;2022-09-28T14:44:12;98405.87;;;14.81;78.42
50867;BME280;36839;51.946;21.002;2022-09-28T14:46:47;98415.64;;;14.67;80.87
50867;BME280;36839;51.946;21.002;2022-09-28T14:54:43;98403.88;;;14.49;81.61
50867;BME280;36839;51.946;21.002;2022-09-28T14:57:20;98396.66;;;14.42;82.31
50867;BME280;36839;51.946;21.002;2022-09-28T14:59:49;98396.15;;;14.34;81.75
50867;BME280;36839;51.946;21.002;2022-09-28T15:02:22;98413.97;;;14.33;83.65
50867;BME280;36839;51.946;21.002;2022-09-28T15:04:53;98419.82;;;14.25;85.40
50867;BME280;36839;51.946;21.002;2022-09-28T15:07:23;98419.82;;;14.25;85.40
50867;BME280;36839;51.946;21.002;2022-09-28T15:09:54;98409.55;;;14.11;85.96
50867;BME280;36839;51.946;21.002;2022-09-28T15:12:26;98421.20;;;14.04;85.79
50867;BME280;36839;51.946;21.002;2022-09-28T15:15:02;98421.20;;;14.04;85.79
50867;BME280;36839;51.946;21.002;2022-09-28T15:17:37;98424.16;;;13.99;87.47
50867;BME280;36839;51.946;21.002;2022-09-28T15:20:20;98428.33;;;13.99;88.46
50867;BME280;36839;51.946;21.002;2022-09-28T15:22:49;98423.45;;;13.96;87.11
50867;BME280;36839;51.946;21.002;2022-09-28T15:25:20;98421.02;;;13.94;88.93
50867;BME280;36839;51.946;21.002;2022-09-28T15:27:51;98415.05;;;13.84;86.85
50867;BME280;36839;51.946;21.002;2022-09-28T15:30:27;98425.28;;;13.77;87.49
50867;BME280;36839;51.946;21.002;2022-09-28T15:33:03;98430.41;;;13.66;87.73